sensor_id;sensor_type;location;lat;lon;timestamp;P1;durP1;ratioP1;P2;durP2;ratioP2
69203;SDS011;56317;27.658;85.326;2023-01-08T00:00:02;144.25;;;78.70;;
69203;SDS011;56317;27.658;85.326;2023-01-08T00:02:31;151.13;;;80.90;;
69203;SDS011;56317;27.658;85.326;2023-01-08T00:04:58;165.77;;;81.68;;
69203;SDS011;56317;27.658;85.326;2023-01-08T00:07:25;156.93;;;81.57;;
69203;SDS011;56317;27.658;85.326;2023-01-08T00:09:52;161.43;;;86.93;;
69203;SDS011;56317;27.658;85.326;2023-01-08T00:12:19;171.65;;;86.80;;
69203;SDS011;56317;27.658;85.326;2023-01-08T00:14:47;168.10;;;84.97;;
69203;SDS011;56317;27.658;85.326;2023-01-08T00:17:14;164.82;;;86.68;;
69203;SDS011;56317;27.658;85.326;2023-01-08T00:19:41;156.88;;;84.07;;
69203;SDS011;56317;27.658;85.326;2023-01-08T00:22:08;164.55;;;85.05;;
69203;SDS011;56317;27.658;85.326;2023-01-08T00:24:36;174.85;;;95.18;;
69203;SDS011;56317;27.658;85.326;2023-01-08T00:27:03;147.10;;;82.38;;
69203;SDS011;56317;27.658;85.326;2023-01-08T00:29:30;144.35;;;82.90;;
69203;SDS011;56317;27.658;85.326;2023-01-08T00:31:57;171.05;;;98.18;;
69203;SDS011;56317;27.658;85.326;2023-01-08T00:34:24;188.02;;;104.50;;
69203;SDS011;56317;27.658;85.326;2023-01-08T00:36:51;184.82;;;106.03;;
69203;SDS011;56317;27.658;85.326;2023-01-08T00:39:19;188.20;;;104.20;;
69203;SDS011;56317;27.658;85.326;2023-01-08T00:41:46;179.63;;;100.90;;
69203;SDS011;56317;27.658;85.326;2023-01-08T00:44:22;187.52;;;100.82;;
69203;SDS011;56317;27.658;85.326;2023-01-08T00:46:49;188.02;;;100.65;;
69203;SDS011;56317;27.658;85.326;2023-01-08T00:49:16;169.68;;;96.85;;
69203;SDS011;56317;27.658;85.326;2023-01-08T00:51:43;193.10;;;104.97;;
69203;SDS011;56317;27.658;85.326;2023-01-08T00:54:10;200.93;;;104.22;;
69203;SDS011;56317;27.658;85.326;2023-01-08T00:56:38;175.45;;;92.10;;
69203;SDS011;56317;27.658;85.326;2023-01-08T00:59:05;157.38;;;93.30;;
69203;SDS011;56317;27.658;85.326;2023-01-08T01:01:35;172.10;;;97.25;;
69203;SDS011;56317;27.658;85.326;2023-01-08T01:04:02;167.05;;;94.60;;
69203;SDS011;56317;27.658;85.326;2023-01-08T01:06:30;180.45;;;95.95;;
69203;SDS011;56317;27.658;85.326;2023-01-08T01:08:57;179.68;;;101.32;;
69203;SDS011;56317;27.658;85.326;2023-01-08T01:11:25;176.93;;;98.25;;
69203;SDS011;56317;27.658;85.326;2023-01-08T01:13:54;189.98;;;100.60;;
69203;SDS011;56317;27.658;85.326;2023-01-08T01:16:22;187.70;;;99.22;;
69203;SDS011;56317;27.658;85.326;2023-01-08T01:18:50;182.20;;;103.78;;
69203;SDS011;56317;27.658;85.326;2023-01-08T01:21:20;203.50;;;111.13;;
69203;SDS011;56317;27.658;85.326;2023-01-08T01:23:49;209.95;;;112.93;;
69203;SDS011;56317;27.658;85.326;2023-01-08T01:26:21;157.57;;;77.80;;
69203;SDS011;56317;27.658;85.326;2023-01-08T01:28:49;244.30;;;122.78;;
69203;SDS011;56317;27.658;85.326;2023-01-08T01:31:18;226.98;;;125.20;;
69203;SDS011;56317;27.658;85.326;2023-01-08T01:33:46;254.50;;;131.20;;
69203;SDS011;56317;27.658;85.326;2023-01-08T01:36:14;276.70;;;131.52;;
69203;SDS011;56317;27.658;85.326;2023-01-08T01:38:43;237.23;;;123.38;;
69203;SDS011;56317;27.658;85.326;2023-01-08T01:41:18;250.35;;;127.60;;
69203;SDS011;56317;27.658;85.326;2023-01-08T01:43:49;277.15;;;139.82;;
69203;SDS011;56317;27.658;85.326;2023-01-08T01:46:25;280.63;;;147.23;;
69203;SDS011;56317;27.658;85.326;2023-01-08T01:48:57;284.38;;;147.52;;
69203;SDS011;56317;27.658;85.326;2023-01-08T01:51:32;249.38;;;134.60;;
69203;SDS011;56317;27.658;85.326;2023-01-08T01:54:01;269.35;;;143.35;;
69203;SDS011;56317;27.658;85.326;2023-01-08T01:56:32;284.13;;;149.70;;
69203;SDS011;56317;27.658;85.326;2023-01-08T01:58:59;284.42;;;147.63;;
69203;SDS011;56317;27.658;85.326;2023-01-08T02:01:27;305.33;;;163.50;;
69203;SDS011;56317;27.658;85.326;2023-01-08T02:03:56;292.42;;;166.38;;
69203;SDS011;56317;27.658;85.326;2023-01-08T02:06:33;302.85;;;192.05;;
69203;SDS011;56317;27.658;85.326;2023-01-08T02:20:30;205.25;;;119.43;;
69203;SDS011;56317;27.658;85.326;2023-01-08T02:23:10;210.55;;;122.07;;
69203;SDS011;56317;27.658;85.326;2023-01-08T02:31:23;201.32;;;112.45;;
69203;SDS011;56317;27.658;85.326;2023-01-08T02:33:52;194.02;;;107.82;;
69203;SDS011;56317;27.658;85.326;2023-01-08T02:36:24;196.07;;;107.32;;
69203;SDS011;56317;27.658;85.326;2023-01-08T02:44:40;184.23;;;97.45;;
69203;SDS011;56317;27.658;85.326;2023-01-08T02:47:24;186.02;;;97.72;;
69203;SDS011;56317;27.658;85.326;2023-01-08T02:52:57;218.75;;;110.65;;
69203;SDS011;56317;27.658;85.326;2023-01-08T02:55:37;196.02;;;104.63;;
69203;SDS011;56317;27.658;85.326;2023-01-08T02:58:09;186.20;;;100.25;;
69203;SDS011;56317;27.658;85.326;2023-01-08T03:00:38;218.50;;;117.20;;
69203;SDS011;56317;27.658;85.326;2023-01-08T03:03:11;220.73;;;121.32;;
69203;SDS011;56317;27.658;85.326;2023-01-08T03:06:01;217.95;;;117.85;;
69203;SDS011;56317;27.658;85.326;2023-01-08T03:08:32;202.48;;;111.65;;
69203;SDS011;56317;27.658;85.326;2023-01-08T03:11:05;185.38;;;100.25;;
69203;SDS011;56317;27.658;85.326;2023-01-08T03:16:33;162.03;;;92.33;;
69203;SDS011;56317;27.658;85.326;2023-01-08T03:19:17;171.63;;;91.05;;
69203;SDS011;56317;27.658;85.326;2023-01-08T03:21:46;155.73;;;88.93;;
69203;SDS011;56317;27.658;85.326;2023-01-08T03:24:16;151.07;;;87.45;;
69203;SDS011;56317;27.658;85.326;2023-01-08T03:26:51;154.93;;;83.82;;
69203;SDS011;56317;27.658;85.326;2023-01-08T03:29:22;141.65;;;81.60;;
69203;SDS011;56317;27.658;85.326;2023-01-08T03:31:51;147.98;;;87.32;;
69203;SDS011;56317;27.658;85.326;2023-01-08T03:34:23;142.68;;;81.07;;
69203;SDS011;56317;27.658;85.326;2023-01-08T03:36:54;122.60;;;75.78;;
69203;SDS011;56317;27.658;85.326;2023-01-08T03:39:27;135.40;;;83.78;;
69203;SDS011;56317;27.658;85.326;2023-01-08T03:42:00;126.70;;;78.43;;
69203;SDS011;56317;27.658;85.326;2023-01-08T03:44:29;129.82;;;81.03;;
69203;SDS011;56317;27.658;85.326;2023-01-08T03:46:57;138.63;;;78.65;;
69203;SDS011;56317;27.658;85.326;2023-01-08T03:49:25;140.88;;;83.45;;
69203;SDS011;56317;27.658;85.326;2023-01-08T03:51:54;142.98;;;82.55;;
69203;SDS011;56317;27.658;85.326;2023-01-08T03:54:27;154.18;;;87.53;;
69203;SDS011;56317;27.658;85.326;2023-01-08T03:56:57;141.93;;;84.38;;
69203;SDS011;56317;27.658;85.326;2023-01-08T03:59:24;139.75;;;84.47;;
69203;SDS011;56317;27.658;85.326;2023-01-08T04:01:51;133.05;;;79.72;;
69203;SDS011;56317;27.658;85.326;2023-01-08T04:04:18;128.85;;;80.93;;
69203;SDS011;56317;27.658;85.326;2023-01-08T04:06:45;129.13;;;76.22;;
69203;SDS011;56317;27.658;85.326;2023-01-08T04:09:13;132.20;;;79.47;;
69203;SDS011;56317;27.658;85.326;2023-01-08T04:11:40;134.02;;;77.93;;
69203;SDS011;56317;27.658;85.326;2023-01-08T04:14:07;127.60;;;74.95;;
69203;SDS011;56317;27.658;85.326;2023-01-08T04:16:36;129.40;;;77.47;;
69203;SDS011;56317;27.658;85.326;2023-01-08T04:19:03;117.00;;;72.05;;
69203;SDS011;56317;27.658;85.326;2023-01-08T04:21:31;117.78;;;74.63;;
69203;SDS011;56317;27.658;85.326;2023-01-08T04:23:58;133.80;;;73.30;;
69203;SDS011;56317;27.658;85.326;2023-01-08T04:26:25;116.15;;;73.18;;
69203;SDS011;56317;27.658;85.326;2023-01-08T04:28:52;114.40;;;71.38;;
69203;SDS011;56317;27.658;85.326;2023-01-08T04:31:20;119.47;;;70.47;;
69203;SDS011;56317;27.658;85.326;2023-01-08T04:33:47;123.65;;;74.00;;
69203;SDS011;56317;27.658;85.326;2023-01-08T04:36:15;125.50;;;77.15;;
69203;SDS011;56317;27.658;85.326;2023-01-08T04:38:42;129.45;;;77.18;;
69203;SDS011;56317;27.658;85.326;2023-01-08T04:41:10;137.18;;;79.97;;
69203;SDS011;56317;27.658;85.326;2023-01-08T04:43:37;136.48;;;80.25;;
69203;SDS011;56317;27.658;85.326;2023-01-08T04:46:04;131.40;;;79.60;;
69203;SDS011;56317;27.658;85.326;2023-01-08T04:48:35;129.83;;;80.27;;
69203;SDS011;56317;27.658;85.326;2023-01-08T04:51:03;130.00;;;78.13;;
69203;SDS011;56317;27.658;85.326;2023-01-08T04:53:32;138.40;;;74.78;;
69203;SDS011;56317;27.658;85.326;2023-01-08T04:56:05;110.68;;;67.65;;
69203;SDS011;56317;27.658;85.326;2023-01-08T04:58:34;104.82;;;65.05;;
69203;SDS011;56317;27.658;85.326;2023-01-08T05:01:35;103.57;;;62.72;;
69203;SDS011;56317;27.658;85.326;2023-01-08T05:03:59;113.35;;;62.90;;
69203;SDS011;56317;27.658;85.326;2023-01-08T05:06:29;101.30;;;63.90;;
69203;SDS011;56317;27.658;85.326;2023-01-08T05:08:58;105.80;;;61.60;;
69203;SDS011;56317;27.658;85.326;2023-01-08T05:11:26;110.40;;;64.10;;
69203;SDS011;56317;27.658;85.326;2023-01-08T05:13:53;107.65;;;63.53;;
69203;SDS011;56317;27.658;85.326;2023-01-08T05:16:21;114.88;;;65.75;;
69203;SDS011;56317;27.658;85.326;2023-01-08T05:18:48;119.45;;;64.78;;
69203;SDS011;56317;27.658;85.326;2023-01-08T05:21:16;103.82;;;62.95;;
69203;SDS011;56317;27.658;85.326;2023-01-08T05:23:44;106.80;;;65.40;;
69203;SDS011;56317;27.658;85.326;2023-01-08T05:26:15;99.78;;;64.43;;
69203;SDS011;56317;27.658;85.326;2023-01-08T05:28:43;106.90;;;64.40;;
69203;SDS011;56317;27.658;85.326;2023-01-08T05:31:11;101.85;;;61.15;;
69203;SDS011;56317;27.658;85.326;2023-01-08T05:33:38;102.20;;;62.28;;
69203;SDS011;56317;27.658;85.326;2023-01-08T05:36:06;103.95;;;64.97;;
69203;SDS011;56317;27.658;85.326;2023-01-08T05:38:34;107.60;;;72.75;;
69203;SDS011;56317;27.658;85.326;2023-01-08T05:41:05;119.93;;;72.53;;
69203;SDS011;56317;27.658;85.326;2023-01-08T05:43:33;107.93;;;62.63;;
69203;SDS011;56317;27.658;85.326;2023-01-08T05:46:02;106.05;;;69.00;;
69203;SDS011;56317;27.658;85.326;2023-01-08T05:48:31;106.35;;;60.50;;
69203;SDS011;56317;27.658;85.326;2023-01-08T05:51:00;108.82;;;61.10;;
69203;SDS011;56317;27.658;85.326;2023-01-08T05:53:27;98.43;;;61.45;;
69203;SDS011;56317;27.658;85.326;2023-01-08T05:56:03;94.95;;;53.05;;
69203;SDS011;56317;27.658;85.326;2023-01-08T05:58:32;93.22;;;53.42;;
69203;SDS011;56317;27.658;85.326;2023-01-08T06:01:00;85.07;;;50.58;;
69203;SDS011;56317;27.658;85.326;2023-01-08T06:03:29;84.00;;;51.77;;
69203;SDS011;56317;27.658;85.326;2023-01-08T06:05:57;78.03;;;47.00;;
69203;SDS011;56317;27.658;85.326;2023-01-08T06:08:26;76.90;;;51.00;;
69203;SDS011;56317;27.658;85.326;2023-01-08T06:10:57;85.45;;;51.47;;
69203;SDS011;56317;27.658;85.326;2023-01-08T06:13:25;55.60;;;34.50;;
69203;SDS011;56317;27.658;85.326;2023-01-08T06:15:57;48.75;;;29.85;;
69203;SDS011;56317;27.658;85.326;2023-01-08T06:18:28;51.55;;;28.48;;
69203;SDS011;56317;27.658;85.326;2023-01-08T06:20:56;41.45;;;27.42;;
69203;SDS011;56317;27.658;85.326;2023-01-08T06:23:23;52.47;;;27.70;;
69203;SDS011;56317;27.658;85.326;2023-01-08T06:25:51;50.85;;;28.95;;
69203;SDS011;56317;27.658;85.326;2023-01-08T06:28:20;54.00;;;30.15;;
69203;SDS011;56317;27.658;85.326;2023-01-08T06:30:47;49.85;;;31.27;;
69203;SDS011;56317;27.658;85.326;2023-01-08T06:33:15;56.55;;;33.58;;
69203;SDS011;56317;27.658;85.326;2023-01-08T06:35:42;53.95;;;30.90;;
69203;SDS011;56317;27.658;85.326;2023-01-08T06:38:09;56.58;;;32.33;;
69203;SDS011;56317;27.658;85.326;2023-01-08T06:40:37;45.88;;;30.63;;
69203;SDS011;56317;27.658;85.326;2023-01-08T06:43:05;48.55;;;27.02;;
69203;SDS011;56317;27.658;85.326;2023-01-08T06:45:32;28.30;;;16.88;;
69203;SDS011;56317;27.658;85.326;2023-01-08T06:48:03;33.17;;;18.80;;
69203;SDS011;56317;27.658;85.326;2023-01-08T06:50:32;31.35;;;18.10;;
69203;SDS011;56317;27.658;85.326;2023-01-08T06:53:00;39.00;;;21.17;;
69203;SDS011;56317;27.658;85.326;2023-01-08T06:55:27;31.80;;;18.90;;
69203;SDS011;56317;27.658;85.326;2023-01-08T06:57:55;44.92;;;20.88;;
69203;SDS011;56317;27.658;85.326;2023-01-08T07:00:23;37.55;;;20.38;;
69203;SDS011;56317;27.658;85.326;2023-01-08T07:02:52;38.05;;;18.83;;
69203;SDS011;56317;27.658;85.326;2023-01-08T07:05:19;30.98;;;18.33;;
69203;SDS011;56317;27.658;85.326;2023-01-08T07:07:47;33.33;;;18.38;;
69203;SDS011;56317;27.658;85.326;2023-01-08T07:10:17;26.05;;;14.93;;
69203;SDS011;56317;27.658;85.326;2023-01-08T07:12:44;28.35;;;15.82;;
69203;SDS011;56317;27.658;85.326;2023-01-08T07:15:12;31.25;;;16.27;;
69203;SDS011;56317;27.658;85.326;2023-01-08T07:17:39;29.45;;;16.05;;
69203;SDS011;56317;27.658;85.326;2023-01-08T07:20:07;37.83;;;17.65;;
69203;SDS011;56317;27.658;85.326;2023-01-08T07:22:34;36.88;;;17.02;;
69203;SDS011;56317;27.658;85.326;2023-01-08T07:25:02;32.00;;;15.88;;
69203;SDS011;56317;27.658;85.326;2023-01-08T07:27:29;34.20;;;16.05;;
69203;SDS011;56317;27.658;85.326;2023-01-08T07:29:57;31.75;;;16.67;;
69203;SDS011;56317;27.658;85.326;2023-01-08T07:32:24;33.95;;;17.17;;
69203;SDS011;56317;27.658;85.326;2023-01-08T07:34:51;36.25;;;16.17;;
69203;SDS011;56317;27.658;85.326;2023-01-08T07:37:19;31.10;;;15.95;;
69203;SDS011;56317;27.658;85.326;2023-01-08T07:39:46;32.28;;;14.35;;
69203;SDS011;56317;27.658;85.326;2023-01-08T07:42:13;34.83;;;13.85;;
69203;SDS011;56317;27.658;85.326;2023-01-08T07:44:40;29.00;;;13.98;;
69203;SDS011;56317;27.658;85.326;2023-01-08T07:47:07;26.23;;;12.00;;
69203;SDS011;56317;27.658;85.326;2023-01-08T07:49:35;20.08;;;11.80;;
69203;SDS011;56317;27.658;85.326;2023-01-08T07:52:02;27.30;;;12.38;;
69203;SDS011;56317;27.658;85.326;2023-01-08T07:54:29;26.65;;;11.23;;
69203;SDS011;56317;27.658;85.326;2023-01-08T07:56:56;37.38;;;12.25;;
69203;SDS011;56317;27.658;85.326;2023-01-08T07:59:23;18.45;;;7.93;;
69203;SDS011;56317;27.658;85.326;2023-01-08T08:01:51;25.10;;;7.72;;
69203;SDS011;56317;27.658;85.326;2023-01-08T08:04:18;19.27;;;8.02;;
69203;SDS011;56317;27.658;85.326;2023-01-08T08:06:45;16.63;;;8.50;;
69203;SDS011;56317;27.658;85.326;2023-01-08T08:09:12;12.52;;;6.30;;
69203;SDS011;56317;27.658;85.326;2023-01-08T08:11:40;19.92;;;7.38;;
69203;SDS011;56317;27.658;85.326;2023-01-08T08:14:07;9.52;;;4.05;;
69203;SDS011;56317;27.658;85.326;2023-01-08T08:16:34;14.82;;;5.07;;
69203;SDS011;56317;27.658;85.326;2023-01-08T08:19:01;19.02;;;8.13;;
69203;SDS011;56317;27.658;85.326;2023-01-08T08:21:29;13.95;;;5.38;;
69203;SDS011;56317;27.658;85.326;2023-01-08T08:23:56;13.52;;;4.40;;
69203;SDS011;56317;27.658;85.326;2023-01-08T08:26:23;8.23;;;3.60;;
69203;SDS011;56317;27.658;85.326;2023-01-08T08:28:50;8.52;;;3.85;;
69203;SDS011;56317;27.658;85.326;2023-01-08T08:31:18;14.82;;;3.97;;
69203;SDS011;56317;27.658;85.326;2023-01-08T08:33:45;9.85;;;3.78;;
69203;SDS011;56317;27.658;85.326;2023-01-08T08:36:12;10.73;;;3.58;;
69203;SDS011;56317;27.658;85.326;2023-01-08T08:38:39;12.15;;;3.90;;
69203;SDS011;56317;27.658;85.326;2023-01-08T08:41:07;7.75;;;3.95;;
69203;SDS011;56317;27.658;85.326;2023-01-08T08:43:34;9.05;;;3.35;;
69203;SDS011;56317;27.658;85.326;2023-01-08T08:46:01;8.73;;;3.17;;
69203;SDS011;56317;27.658;85.326;2023-01-08T08:48:28;11.50;;;4.20;;
69203;SDS011;56317;27.658;85.326;2023-01-08T08:50:55;8.13;;;3.78;;
69203;SDS011;56317;27.658;85.326;2023-01-08T08:53:23;11.18;;;4.25;;
69203;SDS011;56317;27.658;85.326;2023-01-08T08:55:50;8.63;;;3.70;;
69203;SDS011;56317;27.658;85.326;2023-01-08T08:58:18;13.80;;;4.40;;
69203;SDS011;56317;27.658;85.326;2023-01-08T09:00:45;10.52;;;4.30;;
69203;SDS011;56317;27.658;85.326;2023-01-08T09:03:12;18.98;;;5.03;;
69203;SDS011;56317;27.658;85.326;2023-01-08T09:05:41;11.75;;;4.05;;
69203;SDS011;56317;27.658;85.326;2023-01-08T09:08:08;16.00;;;4.90;;
69203;SDS011;56317;27.658;85.326;2023-01-08T09:10:37;17.75;;;10.40;;
69203;SDS011;56317;27.658;85.326;2023-01-08T09:13:06;20.67;;;11.73;;
69203;SDS011;56317;27.658;85.326;2023-01-08T09:15:34;18.02;;;6.93;;
69203;SDS011;56317;27.658;85.326;2023-01-08T09:18:03;16.00;;;5.68;;
69203;SDS011;56317;27.658;85.326;2023-01-08T09:20:34;20.60;;;7.60;;
69203;SDS011;56317;27.658;85.326;2023-01-08T09:23:01;16.05;;;5.97;;
69203;SDS011;56317;27.658;85.326;2023-01-08T09:25:30;20.27;;;7.00;;
69203;SDS011;56317;27.658;85.326;2023-01-08T09:28:01;15.85;;;5.60;;
69203;SDS011;56317;27.658;85.326;2023-01-08T09:30:30;20.70;;;6.43;;
69203;SDS011;56317;27.658;85.326;2023-01-08T09:32:58;12.05;;;4.20;;
69203;SDS011;56317;27.658;85.326;2023-01-08T09:35:26;21.20;;;5.45;;
69203;SDS011;56317;27.658;85.326;2023-01-08T09:37:53;18.73;;;5.25;;
69203;SDS011;56317;27.658;85.326;2023-01-08T09:40:21;11.02;;;3.97;;
69203;SDS011;56317;27.658;85.326;2023-01-08T09:42:54;13.38;;;4.97;;
69203;SDS011;56317;27.658;85.326;2023-01-08T09:45:34;15.20;;;4.95;;
69203;SDS011;56317;27.658;85.326;2023-01-08T09:48:05;13.68;;;4.68;;
69203;SDS011;56317;27.658;85.326;2023-01-08T09:50:37;18.23;;;5.70;;
69203;SDS011;56317;27.658;85.326;2023-01-08T09:53:04;10.50;;;4.63;;
69203;SDS011;56317;27.658;85.326;2023-01-08T09:55:38;19.23;;;5.82;;
69203;SDS011;56317;27.658;85.326;2023-01-08T09:58:15;12.10;;;5.30;;
69203;SDS011;56317;27.658;85.326;2023-01-08T10:01:03;19.70;;;5.68;;
69203;SDS011;56317;27.658;85.326;2023-01-08T10:03:44;24.50;;;5.32;;
69203;SDS011;56317;27.658;85.326;2023-01-08T10:06:12;8.73;;;4.90;;
69203;SDS011;56317;27.658;85.326;2023-01-08T10:08:41;13.80;;;5.72;;
69203;SDS011;56317;27.658;85.326;2023-01-08T10:11:09;14.52;;;5.32;;
69203;SDS011;56317;27.658;85.326;2023-01-08T10:13:40;15.13;;;5.35;;
69203;SDS011;56317;27.658;85.326;2023-01-08T10:16:14;28.75;;;7.63;;
69203;SDS011;56317;27.658;85.326;2023-01-08T10:21:19;22.50;;;7.25;;
69203;SDS011;56317;27.658;85.326;2023-01-08T10:23:50;18.48;;;6.25;;
69203;SDS011;56317;27.658;85.326;2023-01-08T10:26:31;18.08;;;5.55;;
69203;SDS011;56317;27.658;85.326;2023-01-08T10:29:16;15.90;;;6.47;;
69203;SDS011;56317;27.658;85.326;2023-01-08T10:34:48;17.15;;;6.88;;
69203;SDS011;56317;27.658;85.326;2023-01-08T10:39:50;15.00;;;5.97;;
69203;SDS011;56317;27.658;85.326;2023-01-08T10:42:20;21.95;;;7.97;;
69203;SDS011;56317;27.658;85.326;2023-01-08T10:44:59;20.77;;;9.43;;
69203;SDS011;56317;27.658;85.326;2023-01-08T10:47:31;21.38;;;9.32;;
69203;SDS011;56317;27.658;85.326;2023-01-08T10:50:02;32.05;;;13.45;;
69203;SDS011;56317;27.658;85.326;2023-01-08T10:52:31;47.03;;;13.50;;
69203;SDS011;56317;27.658;85.326;2023-01-08T10:55:20;34.88;;;12.68;;
69203;SDS011;56317;27.658;85.326;2023-01-08T10:57:53;24.98;;;11.23;;
69203;SDS011;56317;27.658;85.326;2023-01-08T11:00:22;23.80;;;9.50;;
69203;SDS011;56317;27.658;85.326;2023-01-08T11:02:50;30.17;;;9.57;;
69203;SDS011;56317;27.658;85.326;2023-01-08T11:05:18;28.95;;;9.57;;
69203;SDS011;56317;27.658;85.326;2023-01-08T11:07:55;34.28;;;10.55;;
69203;SDS011;56317;27.658;85.326;2023-01-08T11:10:24;41.70;;;12.45;;
69203;SDS011;56317;27.658;85.326;2023-01-08T11:12:57;51.25;;;14.77;;
69203;SDS011;56317;27.658;85.326;2023-01-08T11:15:36;35.28;;;11.15;;
69203;SDS011;56317;27.658;85.326;2023-01-08T11:18:20;35.53;;;11.93;;
69203;SDS011;56317;27.658;85.326;2023-01-08T11:20:50;45.85;;;14.52;;
69203;SDS011;56317;27.658;85.326;2023-01-08T11:23:20;49.08;;;14.63;;
69203;SDS011;56317;27.658;85.326;2023-01-08T11:26:07;46.90;;;15.13;;
69203;SDS011;56317;27.658;85.326;2023-01-08T11:28:45;49.25;;;15.98;;
69203;SDS011;56317;27.658;85.326;2023-01-08T11:31:49;46.28;;;14.07;;
69203;SDS011;56317;27.658;85.326;2023-01-08T11:34:33;50.90;;;17.17;;
69203;SDS011;56317;27.658;85.326;2023-01-08T11:37:30;57.70;;;16.85;;
69203;SDS011;56317;27.658;85.326;2023-01-08T11:40:02;81.72;;;27.88;;
69203;SDS011;56317;27.658;85.326;2023-01-08T11:45:29;129.77;;;61.17;;
69203;SDS011;56317;27.658;85.326;2023-01-08T11:48:20;172.43;;;80.38;;
69203;SDS011;56317;27.658;85.326;2023-01-08T11:53:46;92.05;;;32.17;;
69203;SDS011;56317;27.658;85.326;2023-01-08T12:01:35;145.88;;;48.17;;
69203;SDS011;56317;27.658;85.326;2023-01-08T12:04:35;78.38;;;29.00;;
69203;SDS011;56317;27.658;85.326;2023-01-08T12:10:19;175.93;;;71.68;;
69203;SDS011;56317;27.658;85.326;2023-01-08T12:24:00;138.00;;;58.10;;
69203;SDS011;56317;27.658;85.326;2023-01-08T12:32:21;115.50;;;41.67;;
69203;SDS011;56317;27.658;85.326;2023-01-08T12:37:54;147.25;;;55.20;;
69203;SDS011;56317;27.658;85.326;2023-01-08T12:40:35;96.80;;;41.63;;
69203;SDS011;56317;27.658;85.326;2023-01-08T12:43:06;153.18;;;54.38;;
69203;SDS011;56317;27.658;85.326;2023-01-08T12:45:46;108.43;;;47.85;;
69203;SDS011;56317;27.658;85.326;2023-01-08T12:48:18;97.97;;;40.97;;
69203;SDS011;56317;27.658;85.326;2023-01-08T12:53:48;105.10;;;35.40;;
69203;SDS011;56317;27.658;85.326;2023-01-08T12:59:42;78.30;;;33.58;;
69203;SDS011;56317;27.658;85.326;2023-01-08T13:02:26;100.88;;;37.03;;
69203;SDS011;56317;27.658;85.326;2023-01-08T13:07:48;68.32;;;30.20;;
69203;SDS011;56317;27.658;85.326;2023-01-08T13:10:38;95.53;;;33.03;;
69203;SDS011;56317;27.658;85.326;2023-01-08T13:16:06;145.60;;;69.82;;
69203;SDS011;56317;27.658;85.326;2023-01-08T13:18:52;97.10;;;42.55;;
69203;SDS011;56317;27.658;85.326;2023-01-08T13:29:43;126.43;;;51.97;;
69203;SDS011;56317;27.658;85.326;2023-01-08T13:37:44;95.38;;;32.55;;
69203;SDS011;56317;27.658;85.326;2023-01-08T13:45:53;86.88;;;30.40;;
69203;SDS011;56317;27.658;85.326;2023-01-08T13:48:26;77.82;;;26.98;;
69203;SDS011;56317;27.658;85.326;2023-01-08T13:51:03;87.22;;;30.42;;
69203;SDS011;56317;27.658;85.326;2023-01-08T13:53:31;108.35;;;40.67;;
69203;SDS011;56317;27.658;85.326;2023-01-08T13:58:39;129.40;;;43.95;;
69203;SDS011;56317;27.658;85.326;2023-01-08T14:01:16;128.05;;;41.20;;
69203;SDS011;56317;27.658;85.326;2023-01-08T14:03:45;127.50;;;45.03;;
69203;SDS011;56317;27.658;85.326;2023-01-08T14:13:57;184.35;;;73.93;;
69203;SDS011;56317;27.658;85.326;2023-01-08T14:16:25;172.73;;;72.20;;
69203;SDS011;56317;27.658;85.326;2023-01-08T14:18:52;178.82;;;76.28;;
69203;SDS011;56317;27.658;85.326;2023-01-08T14:21:25;191.73;;;79.05;;
69203;SDS011;56317;27.658;85.326;2023-01-08T14:23:52;176.82;;;79.78;;
69203;SDS011;56317;27.658;85.326;2023-01-08T14:28:56;166.57;;;73.53;;
69203;SDS011;56317;27.658;85.326;2023-01-08T14:31:24;164.90;;;72.13;;
69203;SDS011;56317;27.658;85.326;2023-01-08T14:34:01;152.13;;;66.20;;
69203;SDS011;56317;27.658;85.326;2023-01-08T14:36:30;151.18;;;71.28;;
69203;SDS011;56317;27.658;85.326;2023-01-08T14:38:57;155.50;;;68.95;;
69203;SDS011;56317;27.658;85.326;2023-01-08T14:41:34;124.10;;;59.67;;
69203;SDS011;56317;27.658;85.326;2023-01-08T14:44:22;116.60;;;57.90;;
69203;SDS011;56317;27.658;85.326;2023-01-08T14:46:51;130.93;;;58.38;;
69203;SDS011;56317;27.658;85.326;2023-01-08T14:49:29;130.48;;;59.80;;
69203;SDS011;56317;27.658;85.326;2023-01-08T14:52:05;122.65;;;59.63;;
69203;SDS011;56317;27.658;85.326;2023-01-08T14:54:39;133.38;;;62.53;;
69203;SDS011;56317;27.658;85.326;2023-01-08T14:57:10;149.02;;;63.47;;
69203;SDS011;56317;27.658;85.326;2023-01-08T14:59:38;146.35;;;66.07;;
69203;SDS011;56317;27.658;85.326;2023-01-08T15:02:06;140.57;;;64.88;;
69203;SDS011;56317;27.658;85.326;2023-01-08T15:05:02;149.00;;;63.22;;
69203;SDS011;56317;27.658;85.326;2023-01-08T15:07:40;130.70;;;60.20;;
69203;SDS011;56317;27.658;85.326;2023-01-08T15:13:22;133.32;;;61.42;;
69203;SDS011;56317;27.658;85.326;2023-01-08T15:16:00;138.68;;;60.90;;
69203;SDS011;56317;27.658;85.326;2023-01-08T15:18:33;167.80;;;70.85;;
69203;SDS011;56317;27.658;85.326;2023-01-08T15:21:18;212.63;;;75.68;;
69203;SDS011;56317;27.658;85.326;2023-01-08T15:23:49;144.70;;;58.75;;
69203;SDS011;56317;27.658;85.326;2023-01-08T15:26:19;179.63;;;70.82;;
69203;SDS011;56317;27.658;85.326;2023-01-08T15:28:52;168.18;;;67.63;;
69203;SDS011;56317;27.658;85.326;2023-01-08T15:33:56;100.80;;;40.70;;
69203;SDS011;56317;27.658;85.326;2023-01-08T15:36:25;67.07;;;34.88;;
69203;SDS011;56317;27.658;85.326;2023-01-08T15:38:52;104.47;;;41.42;;
69203;SDS011;56317;27.658;85.326;2023-01-08T15:41:20;105.05;;;43.30;;
69203;SDS011;56317;27.658;85.326;2023-01-08T15:44:07;77.55;;;37.42;;
69203;SDS011;56317;27.658;85.326;2023-01-08T15:46:39;117.40;;;46.13;;
69203;SDS011;56317;27.658;85.326;2023-01-08T15:49:06;99.82;;;44.90;;
69203;SDS011;56317;27.658;85.326;2023-01-08T15:51:35;115.13;;;42.58;;
69203;SDS011;56317;27.658;85.326;2023-01-08T15:54:08;114.10;;;44.70;;
69203;SDS011;56317;27.658;85.326;2023-01-08T15:56:39;122.35;;;50.97;;
69203;SDS011;56317;27.658;85.326;2023-01-08T15:59:07;122.30;;;46.55;;
69203;SDS011;56317;27.658;85.326;2023-01-08T16:01:36;136.60;;;49.20;;
69203;SDS011;56317;27.658;85.326;2023-01-08T16:04:04;125.72;;;50.13;;
69203;SDS011;56317;27.658;85.326;2023-01-08T16:06:31;215.40;;;67.05;;
69203;SDS011;56317;27.658;85.326;2023-01-08T16:08:58;118.10;;;59.83;;
69203;SDS011;56317;27.658;85.326;2023-01-08T16:11:26;121.78;;;60.05;;
69203;SDS011;56317;27.658;85.326;2023-01-08T16:13:53;120.45;;;55.70;;
69203;SDS011;56317;27.658;85.326;2023-01-08T16:16:20;126.82;;;59.35;;
69203;SDS011;56317;27.658;85.326;2023-01-08T16:18:48;127.88;;;62.15;;
69203;SDS011;56317;27.658;85.326;2023-01-08T16:21:15;140.55;;;64.60;;
69203;SDS011;56317;27.658;85.326;2023-01-08T16:23:42;129.13;;;66.43;;